Aérodrome :
LOGIN :

S'inscrire | Disclaimer

   EN    FR    IT 

 










Légende :    VFR   VFR Marginal   IFR   IFR Intensif   IFR Très Intensif
Visi : 
Plafond : 
>= 8 km
>= 3000ft
5 à 8 km
1000 à 3000 ft
1500m à 5 km
500 à 1000 ft
800 à 1500m
200 à 500 ft
< 800m
< 200 ft
Symboles :   Orages  Brouillard  Fortes neiges  Fortes précipitations  Vent > 20 kt
SIGMETs :   Divers  Orages  Givrage  Turbulence  Onde Orograph.  Cendres Volcan.







- Altitude de l'aérodrome : 147 ft
- Code IATA : DUS


EDDL - Düsseldorf Int.

DERNIER METAR :
  • 211150Z VRB04KT CAVOK 16/06 Q1034 NOSIG

METARs EXPIRÉS :
  • 211120Z 21007KT CAVOK 14/04 Q1034 NOSIG
  • 211050Z 20006KT 150V240 CAVOK 14/05 Q1035 NOSIG
  • 211020Z 21007KT 180V240 CAVOK 13/05 Q1035 NOSIG
  • 210950Z 19005KT 120V260 CAVOK 13/05 Q1035 NOSIG
  • 210920Z 17005KT 140V210 CAVOK 12/05 Q1035 NOSIG

TAF TAF EDDL
Valide du 21 à 12h jusqu'au 22 à 18h UTC


211100Z 2112/2218 21007KT CAVOK
BECMG 2115/2118 VRB03KT
BECMG 2206/2209 14005KT
Pas de NOTAMs connus pour ce terrain.



MET'MAP, la Météo Aéronautique d'un coup d'oeil ! - Copyright ORBIFLY Décembre 2007 - Disclaimer

ORBIFLY MET'MAP TEAM :

Programmation & Développement : Alexandra Zaïnal
Conception & Développement : Baudouin d'Aumeries
Co-Programmation & Développement : Marc-Olivier Méhu
Soutien technique & logistique : Manuel Goepfert

Contact : metmap@orbifly.com




SOURCES & CREDITS :

   NOAA